createdAt,value
2019-03-27T00:04:12.748Z,4.87
2019-03-27T00:08:49.080Z,5.35
2019-03-27T00:13:25.424Z,4.85
2019-03-27T00:18:01.741Z,5.27
2019-03-27T00:22:38.045Z,5.50
2019-03-27T00:27:14.361Z,4.95
2019-03-27T00:31:50.661Z,4.27
2019-03-27T00:36:26.992Z,4.70
2019-03-27T00:41:03.398Z,4.70
2019-03-27T00:45:39.789Z,4.70
2019-03-27T00:50:16.102Z,4.30
2019-03-27T00:54:52.444Z,4.03
2019-03-27T00:59:28.738Z,4.40
2019-03-27T01:04:05.064Z,4.17
2019-03-27T01:08:41.422Z,5.03
2019-03-27T01:13:17.781Z,4.43
2019-03-27T01:17:54.093Z,5.23
2019-03-27T01:22:30.429Z,5.90
2019-03-27T01:27:06.749Z,4.50
2019-03-27T01:31:43.136Z,5.00
2019-03-27T01:36:19.429Z,5.43
2019-03-27T01:40:55.764Z,5.17
2019-03-27T01:45:32.068Z,5.87
2019-03-27T01:50:09.333Z,5.58
2019-03-27T01:54:45.629Z,5.07
2019-03-27T01:59:22.013Z,4.60
2019-03-27T02:03:58.331Z,4.53
2019-03-27T02:08:34.721Z,4.07
2019-03-27T02:13:11.048Z,5.33
2019-03-27T02:17:47.389Z,5.27
2019-03-27T02:22:23.692Z,4.67
2019-03-27T02:27:00.005Z,5.07
2019-03-27T02:31:36.313Z,4.73
2019-03-27T02:36:12.642Z,5.25
2019-03-27T02:40:48.934Z,4.97
2019-03-27T02:45:26.080Z,5.70
2019-03-27T02:50:02.390Z,4.20
2019-03-27T02:54:38.793Z,5.30
2019-03-27T02:59:15.180Z,5.30
2019-03-27T03:03:51.640Z,5.53
2019-03-27T03:08:27.945Z,5.67
2019-03-27T03:13:04.338Z,7.50
2019-03-27T03:17:40.692Z,4.90
2019-03-27T03:22:17.021Z,4.73
2019-03-27T03:26:53.313Z,4.60
2019-03-27T03:31:29.635Z,3.77
2019-03-27T03:36:06.028Z,4.30
2019-03-27T03:40:42.374Z,4.13
2019-03-27T03:45:18.758Z,3.90
2019-03-27T03:49:55.149Z,3.83
2019-03-27T03:54:31.751Z,3.50
2019-03-27T03:59:09.642Z,3.92
2019-03-27T04:03:47.146Z,3.92
2019-03-27T04:08:23.645Z,4.13
2019-03-27T04:13:00.198Z,4.78
2019-03-27T04:17:36.578Z,5.27
2019-03-27T04:22:12.901Z,4.50
2019-03-27T04:26:49.214Z,4.60
2019-03-27T04:31:25.497Z,4.97
2019-03-27T04:36:01.814Z,4.33
2019-03-27T04:40:38.154Z,4.87
2019-03-27T04:45:16.046Z,5.23
2019-03-27T04:49:52.373Z,4.63
2019-03-27T04:54:28.743Z,4.97
2019-03-27T04:59:05.056Z,4.37
2019-03-27T05:03:41.390Z,6.40
2019-03-27T05:08:17.705Z,5.47
2019-03-27T05:12:54.040Z,6.30
2019-03-27T05:17:30.343Z,7.95
2019-03-27T05:22:06.660Z,5.13
2019-03-27T05:26:42.970Z,5.63
2019-03-27T05:31:19.298Z,5.33
2019-03-27T05:35:55.596Z,4.80
2019-03-27T05:40:31.910Z,5.43
2019-03-27T05:45:08.300Z,4.57
2019-03-27T05:49:44.617Z,5.73
2019-03-27T05:54:20.918Z,6.83
2019-03-27T05:58:57.238Z,6.27
2019-03-27T06:03:33.533Z,5.57
2019-03-27T06:08:09.858Z,6.43
2019-03-27T06:12:46.161Z,5.83
2019-03-27T06:17:22.507Z,5.95
2019-03-27T06:21:58.800Z,5.65
2019-03-27T06:26:35.124Z,4.67
2019-03-27T06:31:11.416Z,5.80
2019-03-27T06:35:47.727Z,5.58
2019-03-27T06:40:24.021Z,5.07
2019-03-27T06:45:00.543Z,5.53
2019-03-27T06:49:36.911Z,4.70
2019-03-27T06:54:13.268Z,5.43
2019-03-27T06:58:54.804Z,5.80
2019-03-27T07:03:27.577Z,4.90
2019-03-27T07:08:03.975Z,5.03
2019-03-27T07:12:40.304Z,5.60
2019-03-27T07:17:16.616Z,5.50
2019-03-27T07:21:52.956Z,5.13
2019-03-27T07:26:29.258Z,4.67
2019-03-27T07:31:05.568Z,4.60
2019-03-27T07:35:41.872Z,4.42
2019-03-27T07:40:18.201Z,4.75
2019-03-27T07:44:52.673Z,5.53
2019-03-27T07:49:29.001Z,7.42
2019-03-27T07:54:05.307Z,4.53
2019-03-27T07:58:41.693Z,5.60
2019-03-27T08:03:17.988Z,4.85
2019-03-27T08:07:54.296Z,5.12
2019-03-27T08:12:30.588Z,5.03
2019-03-27T08:17:06.909Z,5.05
2019-03-27T08:21:43.196Z,6.20
2019-03-27T08:26:19.539Z,5.25
2019-03-27T08:30:55.940Z,6.15
2019-03-27T08:35:32.261Z,5.33
2019-03-27T08:40:09.180Z,5.62
2019-03-27T08:44:45.563Z,5.95
2019-03-27T08:49:22.620Z,5.37
2019-03-27T08:53:59.049Z,6.45
2019-03-27T08:58:35.356Z,6.60
2019-03-27T09:03:11.680Z,7.50
2019-03-27T09:07:47.984Z,6.05
2019-03-27T09:12:24.361Z,6.85
2019-03-27T09:17:00.660Z,6.75
2019-03-27T09:21:36.984Z,6.45
2019-03-27T09:26:13.352Z,5.92
2019-03-27T09:30:49.765Z,5.95
2019-03-27T09:35:26.101Z,6.50
2019-03-27T09:40:02.412Z,6.20
2019-03-27T09:44:38.714Z,6.97
2019-03-27T09:49:15.079Z,6.40
2019-03-27T09:53:53.160Z,5.28
2019-03-27T09:58:29.457Z,7.45
2019-03-27T10:03:05.761Z,7.70
2019-03-27T10:07:42.072Z,6.90
2019-03-27T10:12:18.383Z,6.60
2019-03-27T10:16:54.698Z,6.70
2019-03-27T10:21:32.798Z,6.53
2019-03-27T10:26:09.113Z,5.90
2019-03-27T10:30:45.449Z,6.78
2019-03-27T10:35:21.797Z,5.85
2019-03-27T10:39:58.196Z,5.35
2019-03-27T10:44:34.492Z,6.53
2019-03-27T10:49:10.796Z,6.17
2019-03-27T10:53:47.105Z,6.83
2019-03-27T10:58:23.487Z,7.65
2019-03-27T11:02:59.809Z,7.65
2019-03-27T11:07:36.117Z,7.83
2019-03-27T11:12:12.447Z,8.78
2019-03-27T11:16:48.742Z,7.62
2019-03-27T11:21:25.056Z,8.85
2019-03-27T11:26:01.353Z,8.33
2019-03-27T11:30:41.860Z,7.65
2019-03-27T11:35:18.169Z,6.53
2019-03-27T11:39:54.530Z,8.95
2019-03-27T11:44:30.826Z,8.90
2019-03-27T11:49:07.172Z,7.50
2019-03-27T11:53:43.464Z,8.55
2019-03-27T11:58:19.788Z,8.48
2019-03-27T12:02:56.198Z,10.15
2019-03-27T12:07:32.504Z,8.25
2019-03-27T12:12:08.826Z,9.50
2019-03-27T12:16:45.157Z,11.08
2019-03-27T12:21:21.465Z,10.82
2019-03-27T12:25:57.783Z,9.73
2019-03-27T12:30:34.090Z,10.15
2019-03-27T12:35:10.424Z,12.15
2019-03-27T12:39:46.730Z,9.25
2019-03-27T12:44:23.091Z,10.70
2019-03-27T12:48:59.380Z,9.18
2019-03-27T12:53:35.745Z,9.25
2019-03-27T12:58:12.085Z,8.78
2019-03-27T13:02:48.412Z,9.18
2019-03-27T13:07:24.733Z,8.60
2019-03-27T13:12:01.077Z,9.25
2019-03-27T13:16:37.396Z,9.75
2019-03-27T13:21:25.553Z,9.03
2019-03-27T13:25:51.742Z,7.83
2019-03-27T13:30:28.084Z,7.85
2019-03-27T13:35:05.681Z,6.62
2019-03-27T13:39:41.999Z,7.53
2019-03-27T13:44:18.306Z,7.03
2019-03-27T13:48:54.661Z,6.60
2019-03-27T13:53:30.989Z,6.83
2019-03-27T13:58:07.333Z,6.28
2019-03-27T14:02:43.703Z,7.10
2019-03-27T14:07:20.016Z,6.37
2019-03-27T14:11:56.332Z,6.85
2019-03-27T14:16:32.668Z,5.72
2019-03-27T14:21:08.989Z,6.35
2019-03-27T14:25:48.340Z,5.65
2019-03-27T14:30:52.243Z,5.87
2019-03-27T14:35:28.588Z,6.17
2019-03-27T14:40:06.061Z,6.62
2019-03-27T14:44:42.373Z,5.92
2019-03-27T14:49:18.736Z,6.45
2019-03-27T14:53:55.040Z,7.03
2019-03-27T14:58:31.364Z,6.90
2019-03-27T15:03:08.581Z,6.72
2019-03-27T15:07:44.908Z,7.47
2019-03-27T15:12:21.212Z,6.47
2019-03-27T15:16:57.540Z,6.67
2019-03-27T15:21:35.659Z,6.60
2019-03-27T15:26:10.004Z,6.87
2019-03-27T15:30:46.321Z,6.20
2019-03-27T15:35:22.645Z,7.65
2019-03-27T15:39:58.960Z,8.10
2019-03-27T15:44:35.276Z,7.00
2019-03-27T15:49:11.608Z,7.37
2019-03-27T15:53:47.969Z,7.10
2019-03-27T15:58:24.288Z,7.40
2019-03-27T16:03:00.646Z,6.90
2019-03-27T16:07:37.020Z,7.87
2019-03-27T16:12:13.438Z,7.87
2019-03-27T16:17:06.872Z,6.75
2019-03-27T16:21:27.785Z,6.40
2019-03-27T16:26:04.215Z,6.58
2019-03-27T16:30:40.537Z,5.67
2019-03-27T16:35:16.945Z,6.55
2019-03-27T16:39:53.285Z,7.22
2019-03-27T16:44:29.585Z,6.25
2019-03-27T16:49:05.916Z,6.28
2019-03-27T16:53:42.240Z,6.40
2019-03-27T16:58:18.613Z,5.55
2019-03-27T17:02:54.942Z,5.10
2019-03-27T17:07:31.293Z,6.30
2019-03-27T17:12:07.592Z,6.00
2019-03-27T17:16:43.916Z,5.62
2019-03-27T17:21:20.209Z,5.72
2019-03-27T17:25:56.606Z,5.95
2019-03-27T17:30:33.026Z,7.20
2019-03-27T17:35:09.442Z,4.92
2019-03-27T17:39:45.763Z,5.87
2019-03-27T17:44:22.093Z,6.47
2019-03-27T17:48:58.393Z,5.55
2019-03-27T17:53:34.708Z,6.00
2019-03-27T17:58:10.997Z,4.72
2019-03-27T18:02:47.344Z,5.47
2019-03-27T18:07:23.669Z,5.20
2019-03-27T18:12:00.098Z,5.47
2019-03-27T18:16:36.397Z,5.42
2019-03-27T18:21:12.711Z,5.28
2019-03-27T18:25:49.037Z,5.15
2019-03-27T18:30:25.413Z,4.85
2019-03-27T18:35:01.702Z,5.17
2019-03-27T18:39:38.073Z,6.03
2019-03-27T18:44:14.362Z,5.92
2019-03-27T18:48:50.674Z,5.30
2019-03-27T18:53:26.990Z,5.00
2019-03-27T18:58:03.317Z,5.78
2019-03-27T19:02:39.630Z,5.85
2019-03-27T19:07:15.991Z,5.17
2019-03-27T19:11:52.327Z,5.15
2019-03-27T19:16:28.633Z,5.20
2019-03-27T19:21:04.936Z,5.58
2019-03-27T19:25:41.281Z,5.17
2019-03-27T19:30:17.913Z,5.67
2019-03-27T19:34:54.260Z,8.35
2019-03-27T19:39:30.574Z,6.20
2019-03-27T19:44:06.965Z,5.45
2019-03-27T19:48:43.364Z,6.17
2019-03-27T19:53:19.698Z,6.08
2019-03-27T19:57:56.014Z,6.33
2019-03-27T20:02:32.325Z,5.25
2019-03-27T20:07:08.660Z,5.58
2019-03-27T20:11:45.123Z,5.17
2019-03-27T20:16:21.714Z,6.00
2019-03-27T20:20:58.193Z,6.25
2019-03-27T20:25:34.580Z,5.17
2019-03-27T20:30:13.860Z,5.10
2019-03-27T20:34:51.346Z,5.30
2019-03-27T20:39:28.428Z,6.37
2019-03-27T20:44:06.236Z,6.58
2019-03-27T20:48:42.801Z,6.45
2019-03-27T20:53:19.223Z,5.55
2019-03-27T20:57:55.604Z,5.75
2019-03-27T21:02:31.939Z,5.40
2019-03-27T21:07:08.346Z,4.97
2019-03-27T21:16:19.953Z,5.60
2019-03-27T21:20:56.264Z,5.78
2019-03-27T21:25:32.635Z,4.75
2019-03-27T21:30:10.337Z,5.58
2019-03-27T21:34:46.789Z,4.95
2019-03-27T21:39:25.720Z,5.72
2019-03-27T21:44:01.118Z,6.35
2019-03-27T21:48:37.413Z,7.05
2019-03-27T21:53:14.078Z,5.95
2019-03-27T21:57:50.439Z,6.03
2019-03-27T22:02:26.781Z,6.60
2019-03-27T22:07:03.083Z,8.90
2019-03-27T22:11:39.417Z,6.40
2019-03-27T22:16:15.714Z,5.28
2019-03-27T22:20:52.040Z,6.05
2019-03-27T22:25:35.940Z,5.58
2019-03-27T22:30:07.112Z,5.92
2019-03-27T22:34:44.464Z,6.75
2019-03-27T22:39:20.909Z,5.95
2019-03-27T22:43:57.204Z,5.85
2019-03-27T22:48:33.528Z,6.47
2019-03-27T22:53:09.830Z,6.62
2019-03-27T22:57:46.258Z,6.22
2019-03-27T23:02:22.753Z,5.97
2019-03-27T23:06:59.068Z,6.58
2019-03-27T23:11:35.368Z,6.80
2019-03-27T23:16:11.709Z,6.85
2019-03-27T23:20:48.034Z,7.15
2019-03-27T23:25:24.360Z,7.58
2019-03-27T23:30:00.656Z,6.40
2019-03-27T23:34:36.970Z,6.62
2019-03-27T23:39:13.272Z,7.12
2019-03-27T23:43:49.609Z,5.90
2019-03-27T23:48:25.932Z,5.75
2019-03-27T23:53:02.251Z,6.90
2019-03-27T23:57:38.556Z,6.37
